Roy, Louisiana
Current Conditions -  °F | °C
As of 12:14 PM on Saturday 25 Oct 2014 (Local Time) from KMNE Reporting Station
Clear Clear  
Wind Chill: 79°   Ceiling: Unl
Heat Index: 80°   Visibility: 10mi
Dew Point: 59°   Wind: 5mph
Humidity: 51%   Direction: 230°SW
Pressure: 30.17"   Gusts: NA
Location:  32.2628°N, 93.0795°W
Report Text: KMNE 251714Z AUTO 23004KT 10SM CLR 26/15 A3017 RMK AO2
Loading
Personal Weather Stations






























Interactive Weather Map New forecast layout! Learn more

10-Day Weather Forecast

Advertisements
Track Severe Weather on mobile